Ibotirama, Brazil
Current Conditions -  °F | °C
As of 12:00 AM on Monday 26 Jan 2015 (Local Time) from SBQV Reporting Station
Clear Clear  
Wind Chill: 66°   Ceiling: Unl
Heat Index: 66°   Visibility: 6mi
Dew Point: 66°   Wind: 10mph
Humidity: 100%   Direction: 70°ENE
Pressure: 30.09"   Gusts: NA
Location:  12.19°S, 43.22°W
Report Text: SBQV 260300Z 07009KT CAVOK 19/19 Q1019
Loading
Personal Weather Stations






























Interactive Weather Map New forecast layout! Learn more

10-Day Weather Forecast

Advertisements
Track Severe Weather on mobile